sensor_id;sensor_type;location;lat;lon;timestamp;P1;durP1;ratioP1;P2;durP2;ratioP2
62848;SDS011;48941;49.516;8.286;2023-01-31T00:01:43;9.05;;;4.43;;
62848;SDS011;48941;49.516;8.286;2023-01-31T00:04:11;9.27;;;4.40;;
62848;SDS011;48941;49.516;8.286;2023-01-31T00:06:39;14.27;;;4.20;;
62848;SDS011;48941;49.516;8.286;2023-01-31T00:09:09;16.88;;;4.25;;
62848;SDS011;48941;49.516;8.286;2023-01-31T00:11:38;10.63;;;4.07;;
62848;SDS011;48941;49.516;8.286;2023-01-31T00:14:06;18.50;;;4.28;;
62848;SDS011;48941;49.516;8.286;2023-01-31T00:16:35;16.80;;;4.70;;
62848;SDS011;48941;49.516;8.286;2023-01-31T00:19:06;10.75;;;3.90;;
62848;SDS011;48941;49.516;8.286;2023-01-31T00:21:33;14.18;;;4.35;;
62848;SDS011;48941;49.516;8.286;2023-01-31T00:24:01;15.27;;;4.22;;
62848;SDS011;48941;49.516;8.286;2023-01-31T00:26:31;13.07;;;4.10;;
62848;SDS011;48941;49.516;8.286;2023-01-31T00:29:02;14.98;;;4.25;;
62848;SDS011;48941;49.516;8.286;2023-01-31T00:31:32;12.98;;;3.83;;
62848;SDS011;48941;49.516;8.286;2023-01-31T00:34:01;14.98;;;4.30;;
62848;SDS011;48941;49.516;8.286;2023-01-31T00:36:31;13.00;;;4.30;;
62848;SDS011;48941;49.516;8.286;2023-01-31T00:39:02;15.77;;;4.40;;
62848;SDS011;48941;49.516;8.286;2023-01-31T00:41:31;19.45;;;5.47;;
62848;SDS011;48941;49.516;8.286;2023-01-31T00:44:00;15.30;;;5.30;;
62848;SDS011;48941;49.516;8.286;2023-01-31T00:46:28;15.82;;;5.55;;
62848;SDS011;48941;49.516;8.286;2023-01-31T00:48:56;14.32;;;5.50;;
62848;SDS011;48941;49.516;8.286;2023-01-31T00:51:24;11.90;;;4.93;;
62848;SDS011;48941;49.516;8.286;2023-01-31T00:53:54;15.45;;;5.20;;
62848;SDS011;48941;49.516;8.286;2023-01-31T00:56:22;16.20;;;5.80;;
62848;SDS011;48941;49.516;8.286;2023-01-31T00:58:51;13.88;;;5.20;;
62848;SDS011;48941;49.516;8.286;2023-01-31T01:01:19;18.42;;;6.00;;
62848;SDS011;48941;49.516;8.286;2023-01-31T01:03:49;13.30;;;5.45;;
62848;SDS011;48941;49.516;8.286;2023-01-31T01:06:17;15.15;;;5.70;;
62848;SDS011;48941;49.516;8.286;2023-01-31T01:08:45;16.98;;;5.53;;
62848;SDS011;48941;49.516;8.286;2023-01-31T01:11:16;12.10;;;5.70;;
62848;SDS011;48941;49.516;8.286;2023-01-31T01:13:45;12.38;;;5.43;;
62848;SDS011;48941;49.516;8.286;2023-01-31T01:16:14;17.08;;;5.78;;
62848;SDS011;48941;49.516;8.286;2023-01-31T01:18:44;11.70;;;4.82;;
62848;SDS011;48941;49.516;8.286;2023-01-31T01:21:14;18.15;;;5.38;;
62848;SDS011;48941;49.516;8.286;2023-01-31T01:23:43;15.07;;;5.88;;
62848;SDS011;48941;49.516;8.286;2023-01-31T01:26:13;14.13;;;5.70;;
62848;SDS011;48941;49.516;8.286;2023-01-31T01:28:43;16.02;;;5.63;;
62848;SDS011;48941;49.516;8.286;2023-01-31T01:31:12;14.15;;;5.20;;
62848;SDS011;48941;49.516;8.286;2023-01-31T01:33:42;14.20;;;5.85;;
62848;SDS011;48941;49.516;8.286;2023-01-31T01:36:10;12.52;;;4.65;;
62848;SDS011;48941;49.516;8.286;2023-01-31T01:38:43;17.33;;;5.10;;
62848;SDS011;48941;49.516;8.286;2023-01-31T01:41:12;20.33;;;5.15;;
62848;SDS011;48941;49.516;8.286;2023-01-31T01:43:42;12.65;;;4.68;;
62848;SDS011;48941;49.516;8.286;2023-01-31T01:46:13;14.25;;;4.55;;
62848;SDS011;48941;49.516;8.286;2023-01-31T01:48:44;12.55;;;4.10;;
62848;SDS011;48941;49.516;8.286;2023-01-31T01:51:15;17.40;;;5.13;;
62848;SDS011;48941;49.516;8.286;2023-01-31T01:53:45;13.07;;;4.68;;
62848;SDS011;48941;49.516;8.286;2023-01-31T01:56:16;15.20;;;4.53;;
62848;SDS011;48941;49.516;8.286;2023-01-31T01:58:52;11.90;;;4.15;;
62848;SDS011;48941;49.516;8.286;2023-01-31T02:01:24;13.52;;;4.43;;
62848;SDS011;48941;49.516;8.286;2023-01-31T02:03:55;14.73;;;4.15;;
62848;SDS011;48941;49.516;8.286;2023-01-31T02:06:23;19.92;;;4.70;;
62848;SDS011;48941;49.516;8.286;2023-01-31T02:08:52;10.77;;;4.45;;
62848;SDS011;48941;49.516;8.286;2023-01-31T02:11:21;18.27;;;4.78;;
62848;SDS011;48941;49.516;8.286;2023-01-31T02:13:54;12.05;;;4.50;;
62848;SDS011;48941;49.516;8.286;2023-01-31T02:16:26;15.30;;;4.20;;
62848;SDS011;48941;49.516;8.286;2023-01-31T02:18:54;12.65;;;4.32;;
62848;SDS011;48941;49.516;8.286;2023-01-31T02:24:42;12.93;;;3.90;;
62848;SDS011;48941;49.516;8.286;2023-01-31T02:27:40;8.55;;;4.05;;
62848;SDS011;48941;49.516;8.286;2023-01-31T02:33:33;15.80;;;4.30;;
62848;SDS011;48941;49.516;8.286;2023-01-31T02:36:10;7.70;;;3.53;;
62848;SDS011;48941;49.516;8.286;2023-01-31T02:38:51;9.60;;;3.78;;
62848;SDS011;48941;49.516;8.286;2023-01-31T02:41:28;19.55;;;4.10;;
62848;SDS011;48941;49.516;8.286;2023-01-31T02:44:05;13.88;;;4.30;;
62848;SDS011;48941;49.516;8.286;2023-01-31T02:46:57;11.07;;;3.83;;
62848;SDS011;48941;49.516;8.286;2023-01-31T02:49:33;20.17;;;4.47;;
62848;SDS011;48941;49.516;8.286;2023-01-31T02:52:06;14.63;;;5.07;;
62848;SDS011;48941;49.516;8.286;2023-01-31T02:54:44;15.55;;;5.00;;
62848;SDS011;48941;49.516;8.286;2023-01-31T02:57:39;12.90;;;4.85;;
62848;SDS011;48941;49.516;8.286;2023-01-31T03:00:10;18.60;;;5.40;;
62848;SDS011;48941;49.516;8.286;2023-01-31T03:02:40;15.98;;;4.82;;
62848;SDS011;48941;49.516;8.286;2023-01-31T03:05:12;15.45;;;5.22;;
62848;SDS011;48941;49.516;8.286;2023-01-31T03:07:42;13.68;;;5.18;;
62848;SDS011;48941;49.516;8.286;2023-01-31T03:13:19;17.73;;;5.63;;
62848;SDS011;48941;49.516;8.286;2023-01-31T03:16:00;14.85;;;5.20;;
62848;SDS011;48941;49.516;8.286;2023-01-31T03:18:53;13.25;;;5.40;;
62848;SDS011;48941;49.516;8.286;2023-01-31T03:21:28;18.83;;;6.00;;
62848;SDS011;48941;49.516;8.286;2023-01-31T03:26:27;14.45;;;5.93;;
62848;SDS011;48941;49.516;8.286;2023-01-31T03:28:55;16.90;;;6.13;;
62848;SDS011;48941;49.516;8.286;2023-01-31T03:31:27;17.73;;;5.93;;
62848;SDS011;48941;49.516;8.286;2023-01-31T03:34:00;14.70;;;6.10;;
62848;SDS011;48941;49.516;8.286;2023-01-31T03:36:34;14.18;;;6.25;;
62848;SDS011;48941;49.516;8.286;2023-01-31T03:39:12;17.45;;;5.90;;
62848;SDS011;48941;49.516;8.286;2023-01-31T03:41:48;16.45;;;5.55;;
62848;SDS011;48941;49.516;8.286;2023-01-31T03:44:25;13.30;;;4.70;;
62848;SDS011;48941;49.516;8.286;2023-01-31T03:47:01;17.65;;;4.88;;
62848;SDS011;48941;49.516;8.286;2023-01-31T03:49:31;15.67;;;4.47;;
62848;SDS011;48941;49.516;8.286;2023-01-31T03:52:03;12.68;;;5.03;;
62848;SDS011;48941;49.516;8.286;2023-01-31T03:54:35;20.65;;;4.63;;
62848;SDS011;48941;49.516;8.286;2023-01-31T03:57:10;15.45;;;4.70;;
62848;SDS011;48941;49.516;8.286;2023-01-31T03:59:45;11.02;;;4.35;;
62848;SDS011;48941;49.516;8.286;2023-01-31T04:02:19;13.90;;;4.90;;
62848;SDS011;48941;49.516;8.286;2023-01-31T04:04:50;12.77;;;4.75;;
62848;SDS011;48941;49.516;8.286;2023-01-31T04:07:23;19.83;;;4.85;;
62848;SDS011;48941;49.516;8.286;2023-01-31T04:09:51;11.73;;;4.93;;
62848;SDS011;48941;49.516;8.286;2023-01-31T04:12:19;14.15;;;4.70;;
62848;SDS011;48941;49.516;8.286;2023-01-31T04:14:47;16.65;;;5.35;;
62848;SDS011;48941;49.516;8.286;2023-01-31T04:17:15;15.55;;;4.82;;
62848;SDS011;48941;49.516;8.286;2023-01-31T04:19:43;11.15;;;4.55;;
62848;SDS011;48941;49.516;8.286;2023-01-31T04:22:11;12.60;;;5.10;;
62848;SDS011;48941;49.516;8.286;2023-01-31T04:24:40;15.30;;;5.35;;
62848;SDS011;48941;49.516;8.286;2023-01-31T04:27:08;15.07;;;5.30;;
62848;SDS011;48941;49.516;8.286;2023-01-31T04:29:36;18.42;;;4.88;;
62848;SDS011;48941;49.516;8.286;2023-01-31T04:32:04;13.88;;;5.30;;
62848;SDS011;48941;49.516;8.286;2023-01-31T04:34:32;16.65;;;5.28;;
62848;SDS011;48941;49.516;8.286;2023-01-31T04:37:00;14.75;;;5.53;;
62848;SDS011;48941;49.516;8.286;2023-01-31T04:39:27;17.50;;;5.03;;
62848;SDS011;48941;49.516;8.286;2023-01-31T04:41:57;17.88;;;6.15;;
62848;SDS011;48941;49.516;8.286;2023-01-31T04:44:24;16.90;;;5.60;;
62848;SDS011;48941;49.516;8.286;2023-01-31T04:46:52;12.27;;;5.00;;
62848;SDS011;48941;49.516;8.286;2023-01-31T04:49:20;12.02;;;5.47;;
62848;SDS011;48941;49.516;8.286;2023-01-31T04:51:48;11.13;;;5.00;;
62848;SDS011;48941;49.516;8.286;2023-01-31T04:54:16;15.18;;;5.00;;
62848;SDS011;48941;49.516;8.286;2023-01-31T04:56:44;14.15;;;5.55;;
62848;SDS011;48941;49.516;8.286;2023-01-31T04:59:13;12.80;;;5.72;;
62848;SDS011;48941;49.516;8.286;2023-01-31T05:01:41;15.63;;;5.63;;
62848;SDS011;48941;49.516;8.286;2023-01-31T05:04:09;16.00;;;5.45;;
62848;SDS011;48941;49.516;8.286;2023-01-31T05:06:37;18.58;;;5.68;;
62848;SDS011;48941;49.516;8.286;2023-01-31T05:09:05;15.02;;;5.13;;
62848;SDS011;48941;49.516;8.286;2023-01-31T05:11:36;13.80;;;6.05;;
62848;SDS011;48941;49.516;8.286;2023-01-31T05:14:03;14.75;;;5.50;;
62848;SDS011;48941;49.516;8.286;2023-01-31T05:16:33;13.55;;;5.05;;
62848;SDS011;48941;49.516;8.286;2023-01-31T05:19:01;13.52;;;6.38;;
62848;SDS011;48941;49.516;8.286;2023-01-31T05:21:29;26.08;;;10.48;;
62848;SDS011;48941;49.516;8.286;2023-01-31T05:24:17;21.63;;;9.02;;
62848;SDS011;48941;49.516;8.286;2023-01-31T05:26:45;14.35;;;6.50;;
62848;SDS011;48941;49.516;8.286;2023-01-31T05:29:16;32.60;;;13.65;;
62848;SDS011;48941;49.516;8.286;2023-01-31T05:31:45;32.38;;;14.27;;
62848;SDS011;48941;49.516;8.286;2023-01-31T05:34:17;16.02;;;7.45;;
62848;SDS011;48941;49.516;8.286;2023-01-31T05:36:45;15.73;;;7.78;;
62848;SDS011;48941;49.516;8.286;2023-01-31T05:39:13;13.45;;;5.55;;
62848;SDS011;48941;49.516;8.286;2023-01-31T05:41:41;13.93;;;4.97;;
62848;SDS011;48941;49.516;8.286;2023-01-31T05:44:09;12.43;;;5.43;;
62848;SDS011;48941;49.516;8.286;2023-01-31T05:46:37;14.80;;;5.10;;
62848;SDS011;48941;49.516;8.286;2023-01-31T05:49:06;14.07;;;5.78;;
62848;SDS011;48941;49.516;8.286;2023-01-31T05:51:34;17.13;;;6.88;;
62848;SDS011;48941;49.516;8.286;2023-01-31T05:54:02;15.20;;;6.82;;
62848;SDS011;48941;49.516;8.286;2023-01-31T05:56:31;19.92;;;7.50;;
62848;SDS011;48941;49.516;8.286;2023-01-31T05:58:59;16.40;;;7.20;;
62848;SDS011;48941;49.516;8.286;2023-01-31T06:01:28;15.23;;;6.57;;
62848;SDS011;48941;49.516;8.286;2023-01-31T06:03:57;16.98;;;6.13;;
62848;SDS011;48941;49.516;8.286;2023-01-31T06:06:26;22.60;;;6.72;;
62848;SDS011;48941;49.516;8.286;2023-01-31T06:08:54;13.68;;;5.75;;
62848;SDS011;48941;49.516;8.286;2023-01-31T06:11:22;15.82;;;6.03;;
62848;SDS011;48941;49.516;8.286;2023-01-31T06:13:50;17.10;;;6.07;;
62848;SDS011;48941;49.516;8.286;2023-01-31T06:16:19;14.27;;;6.10;;
62848;SDS011;48941;49.516;8.286;2023-01-31T06:18:47;12.15;;;6.05;;
62848;SDS011;48941;49.516;8.286;2023-01-31T06:21:15;22.65;;;7.18;;
62848;SDS011;48941;49.516;8.286;2023-01-31T06:23:44;15.70;;;6.45;;
62848;SDS011;48941;49.516;8.286;2023-01-31T06:26:13;14.98;;;6.32;;
62848;SDS011;48941;49.516;8.286;2023-01-31T06:28:41;13.32;;;6.00;;
62848;SDS011;48941;49.516;8.286;2023-01-31T06:31:11;19.33;;;6.55;;
62848;SDS011;48941;49.516;8.286;2023-01-31T06:33:39;15.63;;;6.35;;
62848;SDS011;48941;49.516;8.286;2023-01-31T06:36:13;16.63;;;5.68;;
62848;SDS011;48941;49.516;8.286;2023-01-31T06:38:49;22.10;;;6.40;;
62848;SDS011;48941;49.516;8.286;2023-01-31T06:43:45;13.27;;;6.18;;
62848;SDS011;48941;49.516;8.286;2023-01-31T06:46:13;16.52;;;5.47;;
62848;SDS011;48941;49.516;8.286;2023-01-31T06:48:41;21.33;;;6.10;;
62848;SDS011;48941;49.516;8.286;2023-01-31T06:51:09;16.08;;;6.30;;
62848;SDS011;48941;49.516;8.286;2023-01-31T06:53:37;17.25;;;6.43;;
62848;SDS011;48941;49.516;8.286;2023-01-31T06:56:08;12.55;;;5.43;;
62848;SDS011;48941;49.516;8.286;2023-01-31T06:58:36;18.53;;;6.20;;
62848;SDS011;48941;49.516;8.286;2023-01-31T07:01:05;12.45;;;6.30;;
62848;SDS011;48941;49.516;8.286;2023-01-31T07:03:34;17.20;;;6.40;;
62848;SDS011;48941;49.516;8.286;2023-01-31T07:06:02;14.68;;;6.50;;
62848;SDS011;48941;49.516;8.286;2023-01-31T07:08:31;15.48;;;6.93;;
62848;SDS011;48941;49.516;8.286;2023-01-31T07:11:01;17.50;;;6.80;;
62848;SDS011;48941;49.516;8.286;2023-01-31T07:13:31;15.65;;;7.43;;
62848;SDS011;48941;49.516;8.286;2023-01-31T07:15:59;19.25;;;7.45;;
62848;SDS011;48941;49.516;8.286;2023-01-31T07:18:27;18.13;;;7.50;;
62848;SDS011;48941;49.516;8.286;2023-01-31T07:20:55;17.23;;;7.45;;
62848;SDS011;48941;49.516;8.286;2023-01-31T07:23:23;15.90;;;6.95;;
62848;SDS011;48941;49.516;8.286;2023-01-31T07:25:51;15.27;;;7.88;;
62848;SDS011;48941;49.516;8.286;2023-01-31T07:28:19;14.40;;;7.80;;
62848;SDS011;48941;49.516;8.286;2023-01-31T07:30:48;26.33;;;10.75;;
62848;SDS011;48941;49.516;8.286;2023-01-31T07:33:17;22.90;;;9.90;;
62848;SDS011;48941;49.516;8.286;2023-01-31T07:35:45;20.70;;;9.48;;
62848;SDS011;48941;49.516;8.286;2023-01-31T07:38:13;18.70;;;7.30;;
62848;SDS011;48941;49.516;8.286;2023-01-31T07:40:41;16.65;;;7.30;;
62848;SDS011;48941;49.516;8.286;2023-01-31T07:43:09;15.90;;;8.35;;
62848;SDS011;48941;49.516;8.286;2023-01-31T07:45:37;19.55;;;9.65;;
62848;SDS011;48941;49.516;8.286;2023-01-31T07:48:09;16.10;;;8.35;;
62848;SDS011;48941;49.516;8.286;2023-01-31T07:50:37;18.17;;;8.40;;
62848;SDS011;48941;49.516;8.286;2023-01-31T07:53:05;16.98;;;7.00;;
62848;SDS011;48941;49.516;8.286;2023-01-31T07:55:33;14.18;;;6.95;;
62848;SDS011;48941;49.516;8.286;2023-01-31T07:58:00;17.73;;;6.90;;
62848;SDS011;48941;49.516;8.286;2023-01-31T08:00:28;16.42;;;6.78;;
62848;SDS011;48941;49.516;8.286;2023-01-31T08:03:21;15.07;;;7.25;;
62848;SDS011;48941;49.516;8.286;2023-01-31T08:06:00;18.55;;;7.10;;
62848;SDS011;48941;49.516;8.286;2023-01-31T08:08:30;15.15;;;6.10;;
62848;SDS011;48941;49.516;8.286;2023-01-31T08:10:58;20.33;;;7.65;;
62848;SDS011;48941;49.516;8.286;2023-01-31T08:13:26;14.02;;;6.85;;
62848;SDS011;48941;49.516;8.286;2023-01-31T08:15:54;15.23;;;6.63;;
62848;SDS011;48941;49.516;8.286;2023-01-31T08:18:23;19.83;;;7.60;;
62848;SDS011;48941;49.516;8.286;2023-01-31T08:20:51;19.33;;;7.30;;
62848;SDS011;48941;49.516;8.286;2023-01-31T08:23:19;19.08;;;7.72;;
62848;SDS011;48941;49.516;8.286;2023-01-31T08:25:47;18.83;;;7.63;;
62848;SDS011;48941;49.516;8.286;2023-01-31T08:28:15;18.80;;;7.53;;
62848;SDS011;48941;49.516;8.286;2023-01-31T08:30:43;19.95;;;8.13;;
62848;SDS011;48941;49.516;8.286;2023-01-31T08:33:25;15.60;;;7.47;;
62848;SDS011;48941;49.516;8.286;2023-01-31T08:35:53;14.35;;;6.50;;
62848;SDS011;48941;49.516;8.286;2023-01-31T08:38:21;14.77;;;6.07;;
62848;SDS011;48941;49.516;8.286;2023-01-31T08:40:49;12.77;;;6.72;;
62848;SDS011;48941;49.516;8.286;2023-01-31T08:43:17;18.15;;;5.93;;
62848;SDS011;48941;49.516;8.286;2023-01-31T08:45:45;18.08;;;7.07;;
62848;SDS011;48941;49.516;8.286;2023-01-31T08:48:12;20.10;;;6.43;;
62848;SDS011;48941;49.516;8.286;2023-01-31T08:50:42;16.15;;;6.13;;
62848;SDS011;48941;49.516;8.286;2023-01-31T08:53:10;16.67;;;6.50;;
62848;SDS011;48941;49.516;8.286;2023-01-31T08:55:37;15.98;;;6.15;;
62848;SDS011;48941;49.516;8.286;2023-01-31T08:58:06;17.25;;;7.05;;
62848;SDS011;48941;49.516;8.286;2023-01-31T09:00:34;19.50;;;6.85;;
62848;SDS011;48941;49.516;8.286;2023-01-31T09:03:01;13.82;;;6.30;;
62848;SDS011;48941;49.516;8.286;2023-01-31T09:05:30;21.90;;;7.45;;
62848;SDS011;48941;49.516;8.286;2023-01-31T09:08:00;22.90;;;7.30;;
62848;SDS011;48941;49.516;8.286;2023-01-31T09:10:28;22.48;;;7.95;;
62848;SDS011;48941;49.516;8.286;2023-01-31T09:12:57;21.70;;;7.30;;
62848;SDS011;48941;49.516;8.286;2023-01-31T09:15:25;20.52;;;7.15;;
62848;SDS011;48941;49.516;8.286;2023-01-31T09:17:54;17.98;;;7.57;;
62848;SDS011;48941;49.516;8.286;2023-01-31T09:20:21;23.05;;;8.05;;
62848;SDS011;48941;49.516;8.286;2023-01-31T09:22:49;17.20;;;6.78;;
62848;SDS011;48941;49.516;8.286;2023-01-31T09:25:18;15.70;;;7.03;;
62848;SDS011;48941;49.516;8.286;2023-01-31T09:28:02;18.70;;;7.57;;
62848;SDS011;48941;49.516;8.286;2023-01-31T09:30:31;15.93;;;7.13;;
62848;SDS011;48941;49.516;8.286;2023-01-31T09:32:59;19.33;;;7.15;;
62848;SDS011;48941;49.516;8.286;2023-01-31T09:35:27;14.13;;;6.18;;
62848;SDS011;48941;49.516;8.286;2023-01-31T09:37:57;21.35;;;7.03;;
62848;SDS011;48941;49.516;8.286;2023-01-31T09:40:26;15.95;;;6.55;;
62848;SDS011;48941;49.516;8.286;2023-01-31T09:42:59;18.65;;;6.60;;
62848;SDS011;48941;49.516;8.286;2023-01-31T09:45:30;15.13;;;7.15;;
62848;SDS011;48941;49.516;8.286;2023-01-31T09:48:00;16.45;;;6.50;;
62848;SDS011;48941;49.516;8.286;2023-01-31T09:50:30;14.32;;;6.80;;
62848;SDS011;48941;49.516;8.286;2023-01-31T09:55:34;20.40;;;6.00;;
62848;SDS011;48941;49.516;8.286;2023-01-31T09:58:12;14.52;;;7.10;;
62848;SDS011;48941;49.516;8.286;2023-01-31T10:00:49;15.77;;;6.95;;
62848;SDS011;48941;49.516;8.286;2023-01-31T10:03:27;18.98;;;6.50;;
62848;SDS011;48941;49.516;8.286;2023-01-31T10:06:07;21.10;;;6.88;;
62848;SDS011;48941;49.516;8.286;2023-01-31T10:08:46;15.50;;;6.57;;
62848;SDS011;48941;49.516;8.286;2023-01-31T10:11:25;16.13;;;5.97;;
62848;SDS011;48941;49.516;8.286;2023-01-31T10:13:58;15.15;;;6.45;;
62848;SDS011;48941;49.516;8.286;2023-01-31T10:16:32;17.17;;;5.93;;
62848;SDS011;48941;49.516;8.286;2023-01-31T10:19:05;15.65;;;5.97;;
62848;SDS011;48941;49.516;8.286;2023-01-31T10:21:39;18.63;;;6.72;;
62848;SDS011;48941;49.516;8.286;2023-01-31T10:24:11;18.25;;;6.53;;
62848;SDS011;48941;49.516;8.286;2023-01-31T10:26:43;18.23;;;6.85;;
62848;SDS011;48941;49.516;8.286;2023-01-31T10:29:16;15.23;;;6.05;;
62848;SDS011;48941;49.516;8.286;2023-01-31T10:31:54;13.50;;;6.28;;
62848;SDS011;48941;49.516;8.286;2023-01-31T10:34:27;14.02;;;6.03;;
62848;SDS011;48941;49.516;8.286;2023-01-31T10:37:01;15.88;;;5.82;;
62848;SDS011;48941;49.516;8.286;2023-01-31T10:39:34;16.42;;;6.45;;
62848;SDS011;48941;49.516;8.286;2023-01-31T10:42:10;12.32;;;5.78;;
62848;SDS011;48941;49.516;8.286;2023-01-31T10:44:43;16.80;;;7.57;;
62848;SDS011;48941;49.516;8.286;2023-01-31T10:47:17;15.30;;;6.13;;
62848;SDS011;48941;49.516;8.286;2023-01-31T10:49:49;13.90;;;6.17;;
62848;SDS011;48941;49.516;8.286;2023-01-31T10:52:24;16.00;;;6.70;;
62848;SDS011;48941;49.516;8.286;2023-01-31T10:55:06;23.90;;;6.45;;
62848;SDS011;48941;49.516;8.286;2023-01-31T10:57:48;15.77;;;6.75;;
62848;SDS011;48941;49.516;8.286;2023-01-31T11:00:18;16.08;;;6.93;;
62848;SDS011;48941;49.516;8.286;2023-01-31T11:02:50;16.52;;;6.07;;
62848;SDS011;48941;49.516;8.286;2023-01-31T11:05:18;19.80;;;6.68;;
62848;SDS011;48941;49.516;8.286;2023-01-31T11:07:49;12.45;;;6.75;;
62848;SDS011;48941;49.516;8.286;2023-01-31T11:10:21;14.23;;;6.40;;
62848;SDS011;48941;49.516;8.286;2023-01-31T11:12:54;17.15;;;6.47;;
62848;SDS011;48941;49.516;8.286;2023-01-31T11:15:25;16.88;;;6.40;;
62848;SDS011;48941;49.516;8.286;2023-01-31T11:17:56;20.88;;;6.22;;
62848;SDS011;48941;49.516;8.286;2023-01-31T11:20:27;19.98;;;5.82;;
62848;SDS011;48941;49.516;8.286;2023-01-31T11:22:58;18.92;;;6.35;;
62848;SDS011;48941;49.516;8.286;2023-01-31T11:25:28;15.75;;;6.10;;
62848;SDS011;48941;49.516;8.286;2023-01-31T11:28:00;15.13;;;5.88;;
62848;SDS011;48941;49.516;8.286;2023-01-31T11:30:32;13.50;;;5.30;;
62848;SDS011;48941;49.516;8.286;2023-01-31T11:33:03;14.68;;;6.60;;
62848;SDS011;48941;49.516;8.286;2023-01-31T11:35:32;14.65;;;5.88;;
62848;SDS011;48941;49.516;8.286;2023-01-31T11:38:02;20.08;;;5.88;;
62848;SDS011;48941;49.516;8.286;2023-01-31T11:40:45;16.38;;;6.13;;
62848;SDS011;48941;49.516;8.286;2023-01-31T11:43:23;15.85;;;6.10;;
62848;SDS011;48941;49.516;8.286;2023-01-31T11:45:53;13.05;;;5.57;;
62848;SDS011;48941;49.516;8.286;2023-01-31T11:48:23;12.32;;;5.35;;
62848;SDS011;48941;49.516;8.286;2023-01-31T11:50:53;19.00;;;7.32;;
62848;SDS011;48941;49.516;8.286;2023-01-31T11:53:24;14.40;;;5.32;;
62848;SDS011;48941;49.516;8.286;2023-01-31T11:55:56;13.68;;;4.97;;
62848;SDS011;48941;49.516;8.286;2023-01-31T11:58:40;13.57;;;5.60;;
62848;SDS011;48941;49.516;8.286;2023-01-31T12:01:12;15.57;;;5.75;;
62848;SDS011;48941;49.516;8.286;2023-01-31T12:03:44;11.13;;;5.28;;
62848;SDS011;48941;49.516;8.286;2023-01-31T12:06:28;9.45;;;4.57;;
62848;SDS011;48941;49.516;8.286;2023-01-31T12:09:00;15.07;;;5.40;;
62848;SDS011;48941;49.516;8.286;2023-01-31T12:11:29;20.05;;;5.45;;
62848;SDS011;48941;49.516;8.286;2023-01-31T12:14:01;19.23;;;5.18;;
62848;SDS011;48941;49.516;8.286;2023-01-31T12:16:39;12.45;;;4.80;;
62848;SDS011;48941;49.516;8.286;2023-01-31T12:19:11;12.18;;;4.82;;
62848;SDS011;48941;49.516;8.286;2023-01-31T12:21:53;9.73;;;4.90;;
62848;SDS011;48941;49.516;8.286;2023-01-31T12:24:33;14.13;;;5.88;;
62848;SDS011;48941;49.516;8.286;2023-01-31T12:27:11;12.43;;;4.80;;
62848;SDS011;48941;49.516;8.286;2023-01-31T12:29:57;8.43;;;4.28;;
62848;SDS011;48941;49.516;8.286;2023-01-31T12:32:47;13.45;;;4.88;;
62848;SDS011;48941;49.516;8.286;2023-01-31T12:35:32;12.95;;;5.72;;
62848;SDS011;48941;49.516;8.286;2023-01-31T12:38:14;13.20;;;5.00;;
62848;SDS011;48941;49.516;8.286;2023-01-31T12:40:58;9.90;;;4.55;;
62848;SDS011;48941;49.516;8.286;2023-01-31T12:43:41;9.82;;;4.90;;
62848;SDS011;48941;49.516;8.286;2023-01-31T12:46:22;10.48;;;4.85;;
62848;SDS011;48941;49.516;8.286;2023-01-31T12:49:00;14.68;;;5.43;;
62848;SDS011;48941;49.516;8.286;2023-01-31T12:51:48;14.98;;;4.78;;
62848;SDS011;48941;49.516;8.286;2023-01-31T12:54:31;11.13;;;4.82;;
62848;SDS011;48941;49.516;8.286;2023-01-31T12:57:17;13.88;;;5.20;;
62848;SDS011;48941;49.516;8.286;2023-01-31T12:59:59;11.02;;;5.50;;
62848;SDS011;48941;49.516;8.286;2023-01-31T13:02:48;12.02;;;4.93;;
62848;SDS011;48941;49.516;8.286;2023-01-31T13:07:59;9.35;;;4.55;;
62848;SDS011;48941;49.516;8.286;2023-01-31T13:10:34;11.88;;;5.28;;
62848;SDS011;48941;49.516;8.286;2023-01-31T13:13:04;13.07;;;5.55;;
62848;SDS011;48941;49.516;8.286;2023-01-31T13:15:38;11.95;;;5.90;;
62848;SDS011;48941;49.516;8.286;2023-01-31T13:18:12;11.30;;;5.82;;
62848;SDS011;48941;49.516;8.286;2023-01-31T13:20:42;10.32;;;5.53;;
62848;SDS011;48941;49.516;8.286;2023-01-31T13:23:17;11.38;;;4.95;;
62848;SDS011;48941;49.516;8.286;2023-01-31T13:25:50;11.38;;;5.88;;
62848;SDS011;48941;49.516;8.286;2023-01-31T13:28:23;12.10;;;5.50;;
62848;SDS011;48941;49.516;8.286;2023-01-31T13:30:55;13.00;;;5.15;;
62848;SDS011;48941;49.516;8.286;2023-01-31T13:33:29;12.75;;;4.90;;
62848;SDS011;48941;49.516;8.286;2023-01-31T13:36:05;12.10;;;5.55;;
62848;SDS011;48941;49.516;8.286;2023-01-31T13:38:42;11.95;;;5.25;;
62848;SDS011;48941;49.516;8.286;2023-01-31T13:41:14;12.00;;;5.20;;
62848;SDS011;48941;49.516;8.286;2023-01-31T13:43:47;10.18;;;4.90;;
62848;SDS011;48941;49.516;8.286;2023-01-31T13:46:15;11.02;;;5.32;;
62848;SDS011;48941;49.516;8.286;2023-01-31T13:48:50;13.85;;;5.53;;
62848;SDS011;48941;49.516;8.286;2023-01-31T13:51:22;11.82;;;5.88;;
62848;SDS011;48941;49.516;8.286;2023-01-31T13:53:55;14.80;;;5.95;;
62848;SDS011;48941;49.516;8.286;2023-01-31T13:56:28;12.38;;;5.50;;
62848;SDS011;48941;49.516;8.286;2023-01-31T13:59:00;13.17;;;6.10;;
62848;SDS011;48941;49.516;8.286;2023-01-31T14:01:30;14.98;;;6.00;;
62848;SDS011;48941;49.516;8.286;2023-01-31T14:06:55;17.50;;;6.10;;
62848;SDS011;48941;49.516;8.286;2023-01-31T14:09:25;17.08;;;6.25;;
62848;SDS011;48941;49.516;8.286;2023-01-31T14:11:54;16.63;;;6.38;;
62848;SDS011;48941;49.516;8.286;2023-01-31T14:14:36;17.50;;;6.53;;
62848;SDS011;48941;49.516;8.286;2023-01-31T14:17:09;9.35;;;5.38;;
62848;SDS011;48941;49.516;8.286;2023-01-31T14:22:30;12.27;;;6.15;;
62848;SDS011;48941;49.516;8.286;2023-01-31T14:25:01;11.13;;;5.32;;
62848;SDS011;48941;49.516;8.286;2023-01-31T14:27:32;15.30;;;5.22;;
62848;SDS011;48941;49.516;8.286;2023-01-31T14:30:07;15.57;;;6.85;;
62848;SDS011;48941;49.516;8.286;2023-01-31T14:42:02;16.42;;;7.95;;
62848;SDS011;48941;49.516;8.286;2023-01-31T14:44:50;20.42;;;6.15;;
62848;SDS011;48941;49.516;8.286;2023-01-31T14:47:34;16.77;;;7.43;;
62848;SDS011;48941;49.516;8.286;2023-01-31T14:50:21;15.60;;;8.73;;
62848;SDS011;48941;49.516;8.286;2023-01-31T14:55:57;15.40;;;6.65;;
62848;SDS011;48941;49.516;8.286;2023-01-31T14:58:34;17.05;;;6.05;;
62848;SDS011;48941;49.516;8.286;2023-01-31T15:01:04;14.70;;;6.03;;
62848;SDS011;48941;49.516;8.286;2023-01-31T15:03:35;20.90;;;6.65;;
62848;SDS011;48941;49.516;8.286;2023-01-31T15:06:06;13.10;;;6.00;;
62848;SDS011;48941;49.516;8.286;2023-01-31T15:14:18;17.13;;;5.63;;
62848;SDS011;48941;49.516;8.286;2023-01-31T15:17:00;12.50;;;6.25;;
62848;SDS011;48941;49.516;8.286;2023-01-31T15:19:33;15.35;;;6.68;;
62848;SDS011;48941;49.516;8.286;2023-01-31T15:22:10;13.88;;;6.40;;
62848;SDS011;48941;49.516;8.286;2023-01-31T15:24:42;17.40;;;7.47;;
62848;SDS011;48941;49.516;8.286;2023-01-31T15:27:14;17.85;;;6.28;;
62848;SDS011;48941;49.516;8.286;2023-01-31T15:29:48;18.50;;;6.78;;
62848;SDS011;48941;49.516;8.286;2023-01-31T15:32:21;14.50;;;6.35;;
62848;SDS011;48941;49.516;8.286;2023-01-31T15:34:53;12.40;;;6.32;;
62848;SDS011;48941;49.516;8.286;2023-01-31T15:37:28;18.70;;;6.95;;
62848;SDS011;48941;49.516;8.286;2023-01-31T15:40:02;18.42;;;7.57;;
62848;SDS011;48941;49.516;8.286;2023-01-31T15:42:33;22.52;;;8.38;;
62848;SDS011;48941;49.516;8.286;2023-01-31T15:45:16;21.13;;;7.07;;
62848;SDS011;48941;49.516;8.286;2023-01-31T15:47:57;16.98;;;8.05;;